Time;durP1;ratioP1;P1;durP2;ratioP2;P2;SDS_P1;SDS_P2;PMS_P1;PMS_P2;Temp;Humidity;BMP_temperature;BMP_pressure;BME280_temperature;BME280_humidity;BME280_pressure;Samples;Min_cycle;Max_cycle;Signal;HPM_P1;HPM_P2
2024/03/31 00:01:53;;;;;;;9.20;4.70;;;;;;;20.46;41.26;99928.17;107942;1254;74606;-67
2024/03/31 00:04:21;;;;;;;15.30;5.20;;;;;;;20.41;41.30;99930.71;108010;1253;70322;-68
2024/03/31 00:06:50;;;;;;;12.20;4.50;;;;;;;20.35;41.35;99927.81;108089;1258;72510;-68
2024/03/31 00:09:17;;;;;;;8.40;4.50;;;;;;;20.20;41.77;99926.14;108031;1257;61107;-67
2024/03/31 00:11:45;;;;;;;12.50;4.50;;;;;;;20.07;41.65;99929.92;108056;1253;61148;-67
2024/03/31 00:14:12;;;;;;;16.40;4.70;;;;;;;20.04;42.34;99929.83;108001;1253;75812;-66
2024/03/31 00:16:39;;;;;;;12.60;5.20;;;;;;;19.95;42.30;99926.58;107997;1254;69024;-67
2024/03/31 00:19:06;;;;;;;14.10;5.00;;;;;;;19.89;42.41;99926.87;107931;1255;71492;-68
2024/03/31 00:21:34;;;;;;;8.40;4.20;;;;;;;19.90;42.54;99926.60;107975;1254;61888;-68
2024/03/31 00:24:01;;;;;;;11.00;4.80;;;;;;;19.79;42.63;99927.66;108006;1254;61273;-69
2024/03/31 00:26:28;;;;;;;15.40;5.00;;;;;;;19.69;42.79;99929.34;107863;1259;74657;-70
2024/03/31 00:28:56;;;;;;;14.20;5.10;;;;;;;19.69;42.75;99928.75;107933;1254;69368;-67
2024/03/31 00:31:24;;;;;;;12.00;4.90;;;;;;;19.81;42.48;99929.79;107958;1258;71477;-68
2024/03/31 00:33:51;;;;;;;10.00;5.40;;;;;;;19.79;42.74;99932.08;107982;1257;61249;-69
2024/03/31 00:36:19;;;;;;;13.60;6.00;;;;;;;19.89;42.44;99930.41;107840;1254;61131;-68
2024/03/31 00:38:46;;;;;;;12.00;5.40;;;;;;;19.86;42.46;99929.58;107905;1254;72966;-68
2024/03/31 00:41:13;;;;;;;13.20;5.20;;;;;;;19.79;42.83;99936.52;108046;1254;69314;-69
2024/03/31 00:43:41;;;;;;;11.10;6.10;;;;;;;19.83;42.84;99937.65;108010;1259;72693;-69
2024/03/31 00:46:08;;;;;;;13.70;6.40;;;;;;;19.78;42.90;99936.23;107996;1258;61705;-68
2024/03/31 00:48:36;;;;;;;16.50;7.10;;;;;;;19.79;42.55;99935.14;108028;1255;61156;-68
2024/03/31 00:51:04;;;;;;;14.30;6.70;;;;;;;19.57;43.06;99933.95;108002;1254;74873;-68
2024/03/31 00:53:31;;;;;;;12.50;6.00;;;;;;;19.35;43.56;99932.98;108119;1254;68856;-68
2024/03/31 00:55:59;;;;;;;18.00;8.40;;;;;;;19.38;43.13;99934.88;107970;1257;72636;-69
2024/03/31 00:58:28;;;;;;;14.60;6.60;;;;;;;19.31;43.71;99932.80;107931;1254;61182;-69
2024/03/31 01:00:56;;;;;;;19.60;7.90;;;;;;;19.37;43.20;99930.85;107882;1257;61075;-68
2024/03/31 01:03:30;;;;;;;18.90;6.70;;;;;;;19.18;43.71;99929.34;107919;1260;74618;-67
2024/03/31 01:06:00;;;;;;;13.60;5.50;;;;;;;19.07;44.68;99927.83;108041;1256;69996;-68
2024/03/31 01:08:28;;;;;;;24.40;7.30;;;;;;;18.98;44.45;99926.90;107969;1257;74468;-68
2024/03/31 01:10:55;;;;;;;12.20;6.40;;;;;;;19.06;44.77;99928.77;107832;1257;61357;-67
2024/03/31 01:13:22;;;;;;;16.40;6.30;;;;;;;19.23;44.58;99928.95;107885;1256;61111;-70
2024/03/31 01:15:52;;;;;;;14.80;6.90;;;;;;;19.25;44.56;99923.23;107918;1254;73432;-70
2024/03/31 01:18:19;;;;;;;17.50;5.70;;;;;;;19.30;44.77;99921.11;107867;1256;69283;-68
2024/03/31 01:20:47;;;;;;;16.00;6.30;;;;;;;19.10;44.84;99923.30;107903;1256;73050;-68
2024/03/31 01:23:15;;;;;;;17.70;5.70;;;;;;;18.89;45.49;99929.88;107893;1256;61211;-70
2024/03/31 01:25:42;;;;;;;13.40;5.50;;;;;;;18.86;45.63;99931.39;107907;1256;61099;-69
2024/03/31 01:28:10;;;;;;;16.10;5.70;;;;;;;19.06;44.93;99936.23;107807;1256;74722;-68
2024/03/31 01:30:37;;;;;;;15.10;5.80;;;;;;;19.18;45.04;99940.37;107871;1256;69312;-67
2024/03/31 01:33:04;;;;;;;15.60;6.00;;;;;;;19.04;45.26;99936.23;107710;1257;73264;-67
2024/03/31 01:35:32;;;;;;;13.50;5.60;;;;;;;19.08;45.30;99934.84;107689;1254;61159;-69
2024/03/31 01:37:59;;;;;;;12.60;5.70;;;;;;;19.07;45.40;99933.00;107805;1254;59569;-69
2024/03/31 01:40:27;;;;;;;13.80;5.50;;;;;;;19.08;45.12;99933.47;107778;1254;75120;-68
2024/03/31 01:42:55;;;;;;;19.50;5.80;;;;;;;19.07;45.64;99932.25;107753;1257;68987;-68
2024/03/31 01:45:22;;;;;;;13.00;5.50;;;;;;;19.16;45.43;99934.85;107770;1254;70610;-68
2024/03/31 01:47:50;;;;;;;17.10;5.60;;;;;;;19.32;44.99;99933.78;107910;1254;61040;-67
2024/03/31 01:50:17;;;;;;;16.60;6.00;;;;;;;19.37;45.20;99933.74;107952;1254;61445;-68
2024/03/31 01:52:44;;;;;;;22.40;5.90;;;;;;;19.30;44.75;99936.03;107823;1254;74557;-68
2024/03/31 01:55:12;;;;;;;17.50;6.20;;;;;;;19.27;45.02;99932.33;107764;1254;68987;-68
2024/03/31 01:57:39;;;;;;;17.40;6.10;;;;;;;19.22;45.29;99930.27;107890;1253;71490;-69
2024/03/31 02:00:07;;;;;;;13.50;6.10;;;;;;;19.08;45.42;99929.35;108093;1254;61077;-65
2024/03/31 02:02:41;;;;;;;20.90;6.50;;;;;;;18.87;46.26;99936.24;108063;1253;61335;-69
2024/03/31 02:05:08;;;;;;;10.50;5.50;;;;;;;18.89;46.41;99940.38;107949;1253;73420;-66
2024/03/31 02:07:36;;;;;;;20.20;6.00;;;;;;;18.99;46.33;99941.60;108076;1254;68273;-67
2024/03/31 02:10:04;;;;;;;16.80;5.70;;;;;;;18.97;46.36;99941.55;108074;1254;71445;-68
2024/03/31 02:12:37;;;;;;;15.90;5.40;;;;;;;19.07;46.01;99944.41;107950;1253;61636;-68
2024/03/31 02:15:05;;;;;;;12.20;5.80;;;;;;;19.16;45.96;99947.83;108114;1253;61260;-67
2024/03/31 02:17:32;;;;;;;9.80;5.50;;;;;;;19.23;45.55;99950.82;108096;1253;73732;-68
2024/03/31 02:20:00;;;;;;;18.50;6.30;;;;;;;19.20;45.54;99949.84;108091;1253;69210;-67
2024/03/31 02:22:27;;;;;;;17.20;6.20;;;;;;;19.11;45.90;99951.55;108086;1253;72695;-68
2024/03/31 02:24:54;;;;;;;20.80;5.90;;;;;;;19.16;45.83;99952.43;108003;1254;61215;-70
2024/03/31 02:27:22;;;;;;;13.80;5.70;;;;;;;19.14;45.73;99954.16;107963;1253;61177;-69
2024/03/31 02:29:49;;;;;;;17.30;5.40;;;;;;;19.14;45.80;99953.86;107983;1256;74729;-68
2024/03/31 02:32:16;;;;;;;13.30;6.00;;;;;;;19.12;45.51;99951.15;108020;1253;70190;-67
2024/03/31 02:34:43;;;;;;;16.10;5.90;;;;;;;19.07;45.89;99949.70;107899;1257;72833;-68
2024/03/31 02:37:11;;;;;;;17.70;6.40;;;;;;;19.20;45.50;99950.52;108034;1253;61717;-67
2024/03/31 02:39:39;;;;;;;23.60;6.60;;;;;;;19.28;45.33;99950.27;107943;1253;59818;-68
2024/03/31 02:42:06;;;;;;;16.60;7.00;;;;;;;19.12;45.89;99948.96;108008;1253;74555;-68
2024/03/31 02:44:33;;;;;;;18.30;7.30;;;;;;;19.05;46.17;99948.59;108035;1253;70131;-69
2024/03/31 02:47:01;;;;;;;19.20;7.10;;;;;;;19.19;45.84;99951.70;108033;1253;71131;-68
2024/03/31 02:49:28;;;;;;;22.80;7.20;;;;;;;19.14;45.78;99951.54;108017;1253;61423;-67
2024/03/31 02:51:55;;;;;;;22.30;8.90;;;;;;;19.08;45.68;99949.65;107988;1253;61012;-68
2024/03/31 02:54:23;;;;;;;17.70;8.10;;;;;;;19.05;45.83;99949.29;107960;1255;74291;-67
2024/03/31 02:56:50;;;;;;;19.20;9.80;;;;;;;19.00;45.71;99946.34;108037;1253;69243;-68
2024/03/31 02:59:17;;;;;;;23.90;10.20;;;;;;;18.91;45.79;99945.96;108018;1253;72654;-67
2024/03/31 03:01:44;;;;;;;18.70;8.10;;;;;;;18.86;45.71;99946.45;107985;1253;61683;-69
2024/03/31 03:04:13;;;;;;;19.80;9.80;;;;;;;18.90;45.36;99947.59;108045;1253;60977;-68
2024/03/31 03:06:40;;;;;;;20.90;7.80;;;;;;;18.83;45.59;99946.72;107911;1253;74832;-68
2024/03/31 03:09:08;;;;;;;14.10;7.60;;;;;;;18.81;45.39;99946.70;108090;1253;68711;-67
2024/03/31 03:11:35;;;;;;;22.60;8.60;;;;;;;18.53;45.78;99948.17;108074;1253;71356;-67
2024/03/31 03:14:02;;;;;;;18.40;7.10;;;;;;;18.37;46.24;99952.20;107981;1256;61265;-69
2024/03/31 03:16:31;;;;;;;16.60;8.50;;;;;;;18.30;46.17;99951.95;108093;1253;61123;-67
2024/03/31 03:18:58;;;;;;;21.90;10.00;;;;;;;18.18;46.63;99951.77;108121;1253;73631;-68
2024/03/31 03:21:26;;;;;;;20.90;9.80;;;;;;;18.17;46.87;99952.52;108071;1253;71773;-65
2024/03/31 03:23:53;;;;;;;24.10;10.10;;;;;;;18.28;46.90;99955.69;108058;1253;72277;-68
2024/03/31 03:26:21;;;;;;;22.20;8.30;;;;;;;18.42;47.13;99955.73;107999;1256;60908;-68
2024/03/31 03:28:48;;;;;;;24.50;9.30;;;;;;;18.45;47.13;99959.05;108043;1254;61318;-69
2024/03/31 03:31:15;;;;;;;19.80;9.00;;;;;;;18.29;47.42;99956.31;108069;1253;73233;-68
2024/03/31 03:33:46;;;;;;;20.90;9.20;;;;;;;18.33;47.45;99956.41;108065;1253;69122;-68
2024/03/31 03:36:14;;;;;;;25.40;9.30;;;;;;;18.34;47.40;99955.79;107890;1254;72731;-68
2024/03/31 03:38:41;;;;;;;29.60;9.80;;;;;;;18.27;47.75;99954.82;108004;1254;61210;-68
2024/03/31 03:41:10;;;;;;;18.20;8.50;;;;;;;18.27;47.79;99959.63;108013;1254;61328;-69
2024/03/31 03:43:37;;;;;;;22.00;8.90;;;;;;;18.37;47.77;99961.26;108015;1254;73527;-69
2024/03/31 03:46:06;;;;;;;21.80;8.40;;;;;;;18.20;48.14;99960.65;107995;1254;70511;-67
2024/03/31 03:48:35;;;;;;;25.30;9.50;;;;;;;18.32;47.85;99961.42;107971;1255;72658;-68
2024/03/31 03:51:03;;;;;;;19.90;7.80;;;;;;;18.37;48.14;99966.72;107766;1254;61156;-67
2024/03/31 03:53:30;;;;;;;18.00;7.50;;;;;;;18.26;48.42;99964.16;107826;1254;61216;-68
2024/03/31 03:55:58;;;;;;;15.50;7.50;;;;;;;18.32;48.41;99965.15;108013;1254;74725;-68
2024/03/31 03:58:25;;;;;;;18.70;7.40;;;;;;;18.44;48.34;99970.16;108058;1253;68851;-69
2024/03/31 04:00:53;;;;;;;24.40;8.10;;;;;;;18.57;47.72;99971.00;108002;1256;71069;-69
2024/03/31 04:03:20;;;;;;;20.30;8.40;;;;;;;18.50;48.00;99973.30;108082;1254;61120;-68
2024/03/31 04:05:55;;;;;;;20.90;7.80;;;;;;;18.37;48.31;99975.06;108033;1253;60281;-68
2024/03/31 04:08:22;;;;;;;19.70;7.30;;;;;;;18.38;48.14;99976.81;108142;1252;74580;-67
2024/03/31 04:10:49;;;;;;;16.50;7.10;;;;;;;18.43;48.12;99972.50;107963;1253;70491;-70
2024/03/31 04:13:17;;;;;;;16.80;6.90;;;;;;;18.32;48.57;99973.48;107993;1256;71247;-68
2024/03/31 04:15:44;;;;;;;20.70;7.30;;;;;;;18.34;48.84;99971.80;108065;1253;61240;-68
2024/03/31 04:18:12;;;;;;;17.60;6.40;;;;;;;18.24;49.27;99967.29;107961;1253;61123;-67
2024/03/31 04:20:43;;;;;;;16.10;7.20;;;;;;;18.30;48.93;99971.90;108007;1253;74633;-67
2024/03/31 04:23:10;;;;;;;21.50;8.30;;;;;;;18.47;48.56;99969.88;108070;1253;68851;-69
2024/03/31 04:25:37;;;;;;;18.20;7.10;;;;;;;18.42;48.99;99972.25;107947;1253;72702;-66
2024/03/31 04:28:05;;;;;;;16.30;7.00;;;;;;;18.49;48.64;99974.61;108049;1253;61770;-68
2024/03/31 04:30:39;;;;;;;18.50;7.00;;;;;;;18.62;48.56;99978.99;108027;1253;61278;-68
2024/03/31 04:33:07;;;;;;;17.30;7.00;;;;;;;18.70;48.33;99979.13;107938;1253;74641;-68
2024/03/31 04:35:37;;;;;;;18.00;7.10;;;;;;;18.73;48.06;99976.41;107998;1252;69770;-67
2024/03/31 04:38:05;;;;;;;15.00;6.90;;;;;;;18.73;48.38;99974.08;108076;1256;71649;-68
2024/03/31 04:40:33;;;;;;;27.30;8.20;;;;;;;18.85;47.94;99972.52;108039;1252;61116;-67
2024/03/31 04:43:01;;;;;;;19.80;7.00;;;;;;;19.02;47.87;99970.36;108068;1253;60020;-69
2024/03/31 04:45:31;;;;;;;13.80;6.00;;;;;;;19.15;47.71;99974.01;108105;1253;73417;-67
2024/03/31 04:48:04;;;;;;;22.20;7.50;;;;;;;19.24;47.31;99976.04;107881;1253;69996;-68
2024/03/31 04:50:38;;;;;;;19.20;6.80;;;;;;;19.55;47.00;99981.34;107876;1256;72124;-67
2024/03/31 04:53:05;;;;;;;18.80;7.30;;;;;;;19.87;46.35;99986.55;108048;1253;61988;-69
2024/03/31 04:55:35;;;;;;;18.30;7.10;;;;;;;20.06;45.78;99989.37;107959;1253;61231;-68
2024/03/31 04:58:04;;;;;;;25.70;7.80;;;;;;;20.28;45.43;99987.91;108066;1258;74657;-68
2024/03/31 05:00:31;;;;;;;18.00;6.90;;;;;;;20.46;44.99;99980.79;108131;1252;70023;-67
2024/03/31 05:02:59;;;;;;;14.90;6.30;;;;;;;20.57;44.87;99978.34;107924;1253;71513;-69
2024/03/31 05:05:26;;;;;;;19.30;6.70;;;;;;;20.66;44.64;99981.15;107924;1259;61307;-69
2024/03/31 05:07:53;;;;;;;21.70;7.10;;;;;;;20.75;44.36;99975.78;107866;1252;60511;-69
2024/03/31 05:10:21;;;;;;;16.70;6.30;;;;;;;20.93;44.07;99973.58;108015;1253;76620;-67
2024/03/31 05:12:48;;;;;;;26.80;6.80;;;;;;;21.07;43.68;99978.18;107938;1252;69380;-68
2024/03/31 05:15:15;;;;;;;22.40;6.90;;;;;;;21.33;43.10;99978.99;107941;1253;72708;-66
2024/03/31 05:17:43;;;;;;;14.90;6.10;;;;;;;21.52;42.89;99979.20;108055;1253;61041;-70
2024/03/31 05:20:10;;;;;;;16.00;6.90;;;;;;;21.77;42.39;99976.91;107966;1252;61198;-67
2024/03/31 05:22:37;;;;;;;23.00;7.10;;;;;;;21.75;42.39;99978.84;107978;1253;74628;-68
2024/03/31 05:25:05;;;;;;;17.10;6.20;;;;;;;21.95;41.92;99980.53;107952;1253;68968;-68
2024/03/31 05:27:33;;;;;;;16.10;6.60;;;;;;;22.02;41.78;99980.06;108041;1254;72295;-68
2024/03/31 05:30:00;;;;;;;17.10;5.90;;;;;;;22.18;41.53;99975.64;107940;1256;61113;-69
2024/03/31 05:32:28;;;;;;;17.30;6.40;;;;;;;22.18;41.31;99977.45;108000;1252;61101;-68
2024/03/31 05:35:20;;;;;;;22.60;7.30;;;;;;;22.18;41.33;99975.70;107997;1253;74756;-67
2024/03/31 05:37:47;;;;;;;20.00;6.40;;;;;;;22.21;41.44;99982.23;108028;1258;70323;-68
2024/03/31 05:40:15;;;;;;;17.60;6.70;;;;;;;22.44;40.72;99981.43;107833;1256;72713;-68
2024/03/31 05:42:42;;;;;;;20.60;6.70;;;;;;;22.30;41.18;99980.16;107976;1259;61138;-68
2024/03/31 05:45:09;;;;;;;19.40;7.10;;;;;;;22.31;41.13;99982.39;108019;1253;61373;-68
2024/03/31 05:47:37;;;;;;;18.50;6.20;;;;;;;22.45;40.66;99981.21;107980;1253;73695;-68
2024/03/31 05:50:06;;;;;;;19.30;6.80;;;;;;;22.56;40.85;99980.92;108016;1253;69700;-67
2024/03/31 05:52:33;;;;;;;21.80;6.90;;;;;;;22.80;40.50;99979.82;107878;1253;72460;-68
2024/03/31 05:55:00;;;;;;;21.80;6.90;;;;;;;23.07;39.87;99981.82;107828;1258;61700;-68
2024/03/31 05:57:28;;;;;;;16.90;6.30;;;;;;;22.96;40.16;99978.04;108018;1253;61114;-69
2024/03/31 05:59:55;;;;;;;24.80;6.90;;;;;;;23.17;39.84;99982.80;107865;1253;73405;-68
2024/03/31 06:02:22;;;;;;;28.40;6.90;;;;;;;23.30;39.78;99988.70;107994;1253;68855;-68
2024/03/31 06:04:50;;;;;;;22.40;8.40;;;;;;;23.58;39.42;99991.85;108003;1256;72696;-68
2024/03/31 06:07:17;;;;;;;22.40;7.70;;;;;;;23.85;38.91;99986.80;107841;1253;61240;-67
2024/03/31 06:09:45;;;;;;;19.90;7.60;;;;;;;24.27;38.25;99983.00;107917;1258;61159;-69
2024/03/31 06:12:12;;;;;;;20.70;8.00;;;;;;;24.70;37.44;99984.38;107902;1253;73432;-68
2024/03/31 06:14:40;;;;;;;21.30;7.10;;;;;;;24.95;37.21;99984.55;107995;1259;69044;-68
2024/03/31 06:17:07;;;;;;;25.50;7.30;;;;;;;24.78;37.07;99985.68;108038;1253;72705;-68
2024/03/31 06:19:35;;;;;;;20.00;6.90;;;;;;;25.08;36.44;99982.55;107995;1253;61224;-69
2024/03/31 06:22:02;;;;;;;18.50;5.90;;;;;;;25.47;36.22;99977.77;107936;1253;61214;-69
2024/03/31 06:24:30;;;;;;;18.20;5.60;;;;;;;25.69;35.44;99977.85;108000;1253;74641;-69
2024/03/31 06:26:58;;;;;;;20.10;6.10;;;;;;;26.03;35.10;99977.52;108039;1253;70334;-68
2024/03/31 06:29:25;;;;;;;19.90;5.70;;;;;;;26.13;34.87;99973.52;107996;1253;71885;-68
2024/03/31 06:31:52;;;;;;;19.60;6.20;;;;;;;26.10;34.41;99975.70;107999;1253;61104;-68
2024/03/31 06:34:19;;;;;;;19.00;5.60;;;;;;;26.18;34.58;99971.48;108012;1253;61106;-69
2024/03/31 06:36:47;;;;;;;26.70;8.60;;;;;;;26.24;34.42;99980.60;107924;1260;73330;-70
2024/03/31 06:39:14;;;;;;;26.10;8.40;;;;;;;26.31;34.23;99984.20;107948;1252;68852;-70
2024/03/31 06:41:41;;;;;;;27.30;7.50;;;;;;;26.46;33.97;99982.07;107986;1253;71193;-70
2024/03/31 06:44:09;;;;;;;23.20;8.10;;;;;;;26.69;33.35;99981.55;107932;1252;61196;-69
2024/03/31 06:46:37;;;;;;;24.80;7.20;;;;;;;27.14;33.29;99981.80;107981;1252;60011;-69
2024/03/31 06:49:04;;;;;;;25.70;7.50;;;;;;;27.46;32.58;99991.25;108030;1251;73359;-69
2024/03/31 06:51:32;;;;;;;27.20;8.80;;;;;;;27.31;32.53;99999.23;108026;1251;68779;-72
2024/03/31 06:53:59;;;;;;;29.20;7.50;;;;;;;27.46;32.53;99999.73;108060;1258;71836;-69
2024/03/31 06:56:26;;;;;;;29.80;6.70;;;;;;;27.65;31.96;100000.19;108043;1251;60401;-67
2024/03/31 06:58:53;;;;;;;23.80;8.00;;;;;;;27.86;31.25;99996.50;108113;1251;61130;-68
2024/03/31 07:01:21;;;;;;;19.30;7.00;;;;;;;27.79;31.82;99998.16;108113;1251;73888;-68
2024/03/31 07:03:48;;;;;;;19.60;6.30;;;;;;;28.09;30.97;99990.73;108097;1252;70008;-69
2024/03/31 07:06:16;;;;;;;21.50;7.20;;;;;;;28.10;31.40;99994.33;108029;1251;71239;-69
2024/03/31 07:08:44;;;;;;;21.30;6.20;;;;;;;28.49;30.85;99989.31;108029;1251;61215;-72
2024/03/31 07:11:11;;;;;;;19.00;5.60;;;;;;;29.05;30.12;99991.56;108063;1251;166477;-71
2024/03/31 07:15:07;;;;;;;13.60;5.30;;;;;;;28.35;31.18;99989.99;104958;1294;600338;-70
2024/03/31 07:17:36;;;;;;;16.90;5.00;;;;;;;30.21;28.76;99987.84;107333;1264;59798;-68
2024/03/31 07:20:05;;;;;;;19.70;5.40;;;;;;;30.17;28.38;99983.27;107463;1260;60086;-69
2024/03/31 07:22:32;;;;;;;20.40;5.80;;;;;;;30.26;28.63;99981.61;107398;1260;71812;-70
2024/03/31 07:25:00;;;;;;;16.20;5.60;;;;;;;30.47;28.24;99983.07;107412;1260;68802;-69
2024/03/31 07:27:28;;;;;;;19.40;5.70;;;;;;;30.56;27.58;99975.02;107361;1260;72635;-70
2024/03/31 07:29:55;;;;;;;21.50;5.90;;;;;;;30.76;27.84;99974.32;107307;1265;218479;-70
2024/03/31 07:32:23;;;;;;;17.70;5.10;;;;;;;30.80;27.43;99976.41;107595;1258;59627;-69
2024/03/31 07:34:50;;;;;;;16.70;6.20;;;;;;;31.08;27.20;99982.36;107538;1261;73027;-71
2024/03/31 07:37:17;;;;;;;16.00;5.60;;;;;;;31.28;27.13;99981.14;107551;1261;70615;-70
2024/03/31 07:39:44;;;;;;;17.30;5.00;;;;;;;31.40;26.63;99985.20;107622;1261;72573;-71
2024/03/31 07:42:12;;;;;;;18.70;5.40;;;;;;;31.61;26.74;99991.23;107595;1260;61325;-70
2024/03/31 07:44:39;;;;;;;19.90;5.70;;;;;;;32.07;26.23;99993.23;107512;1259;60332;-69
2024/03/31 07:47:08;;;;;;;20.40;5.90;;;;;;;32.40;26.20;99994.16;107838;1255;75949;-70
2024/03/31 07:49:35;;;;;;;18.50;5.60;;;;;;;32.85;25.67;99993.90;107907;1260;69676;-70
2024/03/31 07:52:03;;;;;;;20.20;5.20;;;;;;;33.12;24.78;99992.42;107735;1257;73920;-69
2024/03/31 07:54:30;;;;;;;16.10;4.40;;;;;;;33.04;24.82;99994.80;107848;1257;60437;-70
2024/03/31 07:56:58;;;;;;;20.10;5.80;;;;;;;32.77;25.08;99995.89;107954;1257;60212;-68
2024/03/31 07:59:25;;;;;;;21.10;5.10;;;;;;;32.66;25.03;99993.80;107902;1255;74457;-70
2024/03/31 08:01:54;;;;;;;18.90;5.70;;;;;;;32.63;25.16;99990.52;107803;1257;69052;-71
2024/03/31 08:04:22;;;;;;;23.40;5.40;;;;;;;32.84;25.16;99986.93;107780;1257;73337;-71
2024/03/31 08:06:49;;;;;;;18.80;5.00;;;;;;;32.77;24.70;99985.48;107772;1257;60403;-69
2024/03/31 08:09:17;;;;;;;14.40;5.00;;;;;;;32.98;24.91;99979.48;107758;1256;60699;-70
2024/03/31 08:11:44;;;;;;;22.00;6.00;;;;;;;33.08;24.53;99982.84;107722;1261;73713;-69
2024/03/31 08:14:11;;;;;;;13.40;5.00;;;;;;;33.32;24.58;99978.14;107745;1261;68758;-70
2024/03/31 08:16:39;;;;;;;26.60;5.70;;;;;;;33.51;24.26;99978.44;107830;1254;74983;-69
2024/03/31 08:19:07;;;;;;;15.40;5.00;;;;;;;33.85;23.70;99974.90;107788;1254;60493;-69
2024/03/31 08:21:34;;;;;;;19.40;5.40;;;;;;;33.85;23.97;99974.48;107806;1257;60309;-70
2024/03/31 08:24:01;;;;;;;14.90;4.80;;;;;;;33.89;23.87;99977.95;107842;1254;73932;-70
2024/03/31 08:26:28;;;;;;;16.90;5.00;;;;;;;33.87;24.05;99974.09;107767;1257;70283;-69
2024/03/31 08:28:56;;;;;;;13.90;4.80;;;;;;;34.18;24.02;99973.08;107819;1257;64940;-69
2024/03/31 08:31:23;;;;;;;15.40;4.70;;;;;;;34.38;23.19;99970.45;107786;1257;60217;-69
2024/03/31 08:33:50;;;;;;;13.40;4.60;;;;;;;34.28;23.31;99968.00;107865;1254;60448;-71
2024/03/31 08:36:18;;;;;;;16.50;4.60;;;;;;;34.30;23.32;99962.98;107947;1254;73238;-70
2024/03/31 08:38:45;;;;;;;22.20;4.60;;;;;;;34.59;23.45;99961.48;107930;1254;61543;-71
2024/03/31 08:41:21;;;;;;;20.10;5.40;;;;;;;34.72;23.69;99960.35;107876;1254;63745;-69
2024/03/31 08:43:48;;;;;;;24.40;4.80;;;;;;;34.97;23.43;99955.39;107918;1254;61021;-72
2024/03/31 08:46:15;;;;;;;27.60;4.50;;;;;;;35.21;23.22;99956.46;107865;1260;60296;-71
2024/03/31 08:48:42;;;;;;;18.70;4.70;;;;;;;35.51;23.03;99956.89;107685;1254;65093;-70
2024/03/31 08:51:10;;;;;;;22.60;4.90;;;;;;;35.88;22.47;99962.25;107866;1254;62630;-70
2024/03/31 08:53:37;;;;;;;13.90;4.30;;;;;;;35.87;22.43;99962.39;107803;1257;62432;-71
2024/03/31 08:56:04;;;;;;;18.10;4.80;;;;;;;35.66;22.75;99959.48;107859;1260;60341;-71
2024/03/31 08:58:35;;;;;;;16.90;5.00;;;;;;;35.68;22.78;99960.85;107992;1254;60458;-70
2024/03/31 09:01:02;;;;;;;19.80;4.80;;;;;;;35.59;22.62;99959.20;107912;1254;76371;-70
2024/03/31 09:03:29;;;;;;;24.80;5.10;;;;;;;35.51;22.84;99958.07;107799;1254;61457;-72
2024/03/31 09:05:57;;;;;;;25.10;5.10;;;;;;;35.58;22.85;99955.23;107913;1254;63929;-71
2024/03/31 09:08:24;;;;;;;22.30;5.00;;;;;;;35.65;22.84;99953.71;107903;1254;60547;-71
2024/03/31 09:11:07;;;;;;;25.00;5.50;;;;;;;35.59;22.73;99952.91;107938;1254;60420;-72
2024/03/31 09:13:38;;;;;;;28.20;5.60;;;;;;;35.56;23.17;99953.05;107896;1254;65041;-71
2024/03/31 09:16:06;;;;;;;25.50;5.30;;;;;;;35.54;23.35;99948.36;107827;1254;61847;-72
2024/03/31 09:18:33;;;;;;;31.70;5.60;;;;;;;35.56;23.53;99947.24;107860;1256;66009;-72
2024/03/31 09:21:00;;;;;;;33.10;7.30;;;;;;;35.43;23.81;99949.47;107996;1254;60445;-70
2024/03/31 09:23:29;;;;;;;30.40;6.40;;;;;;;35.17;24.03;99952.61;107995;1254;60313;-70
2024/03/31 09:25:56;;;;;;;33.60;6.50;;;;;;;34.82;24.58;99946.52;107820;1254;64878;-71
2024/03/31 09:28:24;;;;;;;37.80;7.20;;;;;;;34.76;24.35;99948.71;107906;1254;63540;-69
2024/03/31 09:30:51;;;;;;;34.60;6.50;;;;;;;34.82;24.09;99943.29;107797;1257;62547;-70
2024/03/31 09:33:18;;;;;;;32.00;6.40;;;;;;;34.61;24.29;99947.64;107914;1254;60376;-70
2024/03/31 09:35:47;;;;;;;29.80;6.80;;;;;;;34.51;24.43;99951.03;107916;1254;60322;-70
2024/03/31 09:38:14;;;;;;;30.60;6.20;;;;;;;34.69;24.47;99951.14;107836;1254;63776;-71
2024/03/31 09:40:41;;;;;;;28.40;5.30;;;;;;;34.69;24.17;99948.29;107844;1254;61733;-70
2024/03/31 09:43:09;;;;;;;24.90;5.50;;;;;;;34.44;24.40;99950.06;107826;1254;66784;-71
2024/03/31 09:45:41;;;;;;;22.40;5.40;;;;;;;34.20;24.70;99951.69;107755;1262;60341;-70
2024/03/31 09:48:11;;;;;;;22.70;5.70;;;;;;;34.20;24.66;99950.25;107854;1254;60315;-71
2024/03/31 09:50:58;;;;;;;30.40;6.00;;;;;;;34.18;24.73;99951.30;107759;1254;66091;-70
2024/03/31 09:53:27;;;;;;;22.90;5.10;;;;;;;34.26;24.84;99953.05;107841;1254;63787;-69
2024/03/31 09:56:05;;;;;;;25.60;5.10;;;;;;;34.32;24.69;99951.81;107810;1254;64175;-71
2024/03/31 09:58:35;;;;;;;25.80;5.00;;;;;;;34.64;24.21;99943.31;107783;1257;59276;-71
2024/03/31 10:01:05;;;;;;;24.70;5.50;;;;;;;34.64;24.20;99942.56;107855;1256;59237;-71
2024/03/31 10:03:35;;;;;;;26.90;7.40;;;;;;;34.42;24.35;99945.50;107835;1254;66990;-70
2024/03/31 10:06:03;;;;;;;30.20;6.60;;;;;;;34.48;24.60;99948.91;107876;1254;72801;-70
2024/03/31 10:08:30;;;;;;;21.00;5.30;;;;;;;34.06;24.41;99946.32;107765;1254;66073;-70
2024/03/31 10:10:58;;;;;;;35.90;5.70;;;;;;;34.01;24.82;99940.66;107785;1254;60427;-71
2024/03/31 10:13:26;;;;;;;28.00;5.30;;;;;;;33.91;24.97;99937.82;107594;1254;61128;-70
2024/03/31 10:15:58;;;;;;;21.30;5.40;;;;;;;33.62;24.88;99933.84;107831;1254;76003;-71
2024/03/31 10:18:25;;;;;;;28.60;5.60;;;;;;;33.55;25.38;99926.91;107820;1254;69658;-71
2024/03/31 10:20:53;;;;;;;21.50;5.50;;;;;;;33.93;24.95;99925.00;107711;1254;74733;-69
2024/03/31 10:23:20;;;;;;;24.60;4.90;;;;;;;33.60;24.83;99927.77;107692;1254;62319;-71
2024/03/31 10:25:47;;;;;;;26.90;5.20;;;;;;;33.41;25.33;99921.33;107715;1254;60419;-70
2024/03/31 10:28:15;;;;;;;27.60;5.70;;;;;;;33.60;24.90;99920.48;107594;1254;66921;-70
2024/03/31 10:30:43;;;;;;;22.40;4.60;;;;;;;33.73;24.79;99921.23;107819;1254;72389;-71
2024/03/31 10:33:10;;;;;;;19.70;4.90;;;;;;;33.84;24.87;99916.92;107797;1257;74907;-70
2024/03/31 10:35:39;;;;;;;22.40;5.20;;;;;;;33.78;24.63;99920.17;107745;1254;60685;-69
2024/03/31 10:38:11;;;;;;;21.10;4.60;;;;;;;33.41;25.23;99918.64;107990;1254;60300;-70
2024/03/31 10:40:39;;;;;;;23.80;5.00;;;;;;;32.92;25.82;99909.54;108012;1253;76283;-71
2024/03/31 10:43:07;;;;;;;21.00;4.70;;;;;;;33.27;25.39;99909.98;107959;1254;70614;-70
2024/03/31 10:45:34;;;;;;;21.70;4.60;;;;;;;33.78;25.17;99908.70;108074;1254;73314;-70
2024/03/31 10:48:02;;;;;;;23.70;5.00;;;;;;;33.97;24.69;99903.89;108008;1253;60387;-69
2024/03/31 10:50:29;;;;;;;22.70;4.50;;;;;;;33.73;24.79;99906.27;107917;1260;59595;-70
2024/03/31 10:52:57;;;;;;;33.10;5.50;;;;;;;33.41;25.27;99903.27;108038;1253;75069;-71
2024/03/31 10:55:24;;;;;;;28.00;5.70;;;;;;;33.25;25.16;99902.52;108023;1253;70941;-71
2024/03/31 10:57:58;;;;;;;24.80;4.60;;;;;;;33.55;25.01;99895.79;107561;1260;72833;-69
2024/03/31 11:00:26;;;;;;;21.70;4.90;;;;;;;33.82;24.48;99892.60;108095;1251;60720;-69
2024/03/31 11:02:53;;;;;;;23.70;5.30;;;;;;;33.91;24.82;99887.06;108089;1251;60323;-68
2024/03/31 11:05:21;;;;;;;16.80;4.40;;;;;;;34.02;25.05;99888.08;108082;1251;65843;-70
2024/03/31 11:07:51;;;;;;;28.80;6.00;;;;;;;33.74;24.76;99891.61;108232;1250;61794;-72
2024/03/31 11:10:19;;;;;;;24.20;5.80;;;;;;;33.38;25.28;99886.17;108022;1253;71628;-71
2024/03/31 11:12:47;;;;;;;27.70;6.00;;;;;;;33.25;25.17;99885.23;108094;1251;60342;-70
2024/03/31 11:15:14;;;;;;;21.20;5.10;;;;;;;32.92;25.46;99875.52;108232;1250;60396;-71
2024/03/31 11:17:42;;;;;;;20.60;5.10;;;;;;;32.93;25.93;99875.63;108269;1250;72776;-69
2024/03/31 11:20:11;;;;;;;18.70;4.80;;;;;;;33.16;25.65;99863.35;108248;1256;60292;-70
2024/03/31 11:22:38;;;;;;;22.50;5.30;;;;;;;33.46;25.36;99864.85;108121;1250;63759;-70